Terminal Aerodrome Forecast
Issued by NWS

Current Version | Previous Version | Text Only | Print | Product List | Glossary On
Versions: 1 2 3 4 5 6 7 8 9 10 11 12 13 14 15 16 17 18 19 20 21 22 23 24 25 26 27 28 29 30 31 32 33 34 35 36 37
000
FTUS45 KBOU 251123
TAFAPA
TAF
KAPA 251123Z 2512/2612 21012KT P6SM SCT120 BKN200
     FM251500 32008KT P6SM SCT120 BKN200
     FM251800 35010KT P6SM SCT070 OVC140
     FM252300 02010G18KT 6SM -SN SCT012 OVC020
      TEMPO 2601/2603 3SM -SN BR BKN007 OVC014
     FM260300 02014G22KT 1SM -SN BR BKN007 OVC014
      TEMPO 2603/2607 1/2SM SN VV003
     FM260700 36010G18KT 3SM -SN BR BKN007 OVC014
      TEMPO 2607/2610 1SM -SN BR OVC007=

USA.gov is the U.S. government's official web portal to all federal, state and local government web resources and services.